Time;durP1;ratioP1;P1;durP2;ratioP2;P2;SDS_P1;SDS_P2;PMS_P1;PMS_P2;Temp;Humidity;BMP_temperature;BMP_pressure;BME280_temperature;BME280_humidity;BME280_pressure;Samples;Min_cycle;Max_cycle;Signal;HPM_P1;HPM_P2
2022/06/07 00:01:00;;;;;;;4.95;1.10;;;;;;;17.12;95.90;98644.37;4500746;31;20100;-71
2022/06/07 00:03:27;;;;;;;1.92;1.00;;;;;;;17.09;96.19;98642.91;4500755;31;20469;-71
2022/06/07 00:05:55;;;;;;;1.37;1.12;;;;;;;17.05;96.46;98651.37;4501018;31;20084;-71
2022/06/07 00:08:22;;;;;;;1.80;1.05;;;;;;;17.02;96.68;98647.31;4500562;31;20126;-71
2022/06/07 00:10:50;;;;;;;1.33;1.23;;;;;;;17.02;96.68;98648.12;4500617;31;20088;-71
2022/06/07 00:13:18;;;;;;;4.60;1.12;;;;;;;17.02;96.69;98647.31;4501018;31;20156;-72
2022/06/07 00:15:45;;;;;;;2.70;1.10;;;;;;;16.98;97.08;98648.66;4500537;31;20114;-71
2022/06/07 00:18:13;;;;;;;1.58;1.37;;;;;;;17.00;97.01;98646.63;4500764;31;20095;-71
2022/06/07 00:20:42;;;;;;;3.62;1.30;;;;;;;16.97;97.21;98645.19;4500561;31;20083;-72
2022/06/07 00:23:13;;;;;;;1.30;1.20;;;;;;;16.96;97.30;98648.03;4500513;31;20195;-71
2022/06/07 00:25:42;;;;;;;1.30;1.00;;;;;;;16.94;97.60;98644.72;4498538;31;20148;-71
2022/06/07 00:28:09;;;;;;;1.65;1.12;;;;;;;16.91;98.01;98643.28;4500605;31;20111;-71
2022/06/07 00:30:36;;;;;;;1.50;1.08;;;;;;;16.91;98.10;98640.62;4501323;31;20156;-71
2022/06/07 00:33:04;;;;;;;2.30;1.12;;;;;;;16.91;98.02;98639.78;4516292;31;20091;-71
2022/06/07 00:35:32;;;;;;;1.33;1.17;;;;;;;16.89;98.13;98637.31;4516294;31;20110;-71
2022/06/07 00:37:59;;;;;;;2.58;1.30;;;;;;;16.89;98.15;98642.63;4516854;31;20122;-71
2022/06/07 00:40:26;;;;;;;4.62;1.30;;;;;;;16.87;98.58;98635.88;4501731;31;20126;-72
2022/06/07 00:42:54;;;;;;;3.53;1.20;;;;;;;16.87;98.48;98644.63;4516752;31;20091;-71
2022/06/07 00:45:26;;;;;;;1.58;1.20;;;;;;;16.88;98.45;98643.66;4516464;31;20087;-71
2022/06/07 00:47:53;;;;;;;1.30;0.95;;;;;;;16.88;98.32;98635.72;4501997;31;20095;-71
2022/06/07 00:50:37;;;;;;;1.30;1.20;;;;;;;16.87;98.62;98635.88;4516147;31;20087;-71
2022/06/07 00:53:05;;;;;;;1.48;1.15;;;;;;;16.84;98.91;98635.19;4501851;31;20606;-71
2022/06/07 00:55:32;;;;;;;1.05;0.98;;;;;;;16.81;98.94;98630.28;4515918;31;20160;-71
2022/06/07 00:58:00;;;;;;;1.73;1.10;;;;;;;16.79;98.95;98636.72;4516405;31;20092;-72
2022/06/07 01:00:28;;;;;;;1.67;1.20;;;;;;;16.82;98.59;98634.56;4516232;31;20091;-71
2022/06/07 01:02:56;;;;;;;2.97;1.20;;;;;;;16.83;98.38;98627.44;4516177;31;20103;-71
2022/06/07 01:05:24;;;;;;;1.20;1.10;;;;;;;16.88;97.68;98619.84;4516189;31;20126;-71
2022/06/07 01:10:44;;;;;;;1.58;1.37;;;;;;;16.96;96.97;98621.56;4515780;31;20114;-71
2022/06/07 01:13:15;;;;;;;1.62;1.23;;;;;;;17.00;96.62;98621.03;4515844;31;20135;-71
2022/06/07 01:15:46;;;;;;;1.75;1.25;;;;;;;17.02;96.57;98620.84;4515906;31;20401;-71
2022/06/07 01:18:15;;;;;;;1.70;1.30;;;;;;;17.00;96.83;98622.81;4515954;31;20249;-71
2022/06/07 01:20:42;;;;;;;2.92;1.10;;;;;;;16.96;97.24;98618.91;4515942;31;20095;-72
2022/06/07 01:23:10;;;;;;;1.40;1.05;;;;;;;16.88;97.79;98617.19;4515801;31;20111;-71
2022/06/07 01:25:37;;;;;;;2.20;1.37;;;;;;;16.85;97.96;98615.69;4515759;31;20100;-72
2022/06/07 01:28:04;;;;;;;1.83;1.27;;;;;;;16.79;98.25;98621.69;4515800;31;20162;-72
2022/06/07 01:30:32;;;;;;;1.77;1.58;;;;;;;16.75;98.59;98609.00;4515223;31;20099;-72
2022/06/07 01:32:59;;;;;;;1.55;1.30;;;;;;;16.73;99.04;98617.12;4499584;31;20122;-71
2022/06/07 01:35:27;;;;;;;4.30;1.27;;;;;;;16.70;99.40;98616.66;4499459;31;20460;-71
2022/06/07 01:37:54;;;;;;;2.40;1.10;;;;;;;16.64;100.00;98607.63;4501998;31;20100;-71
2022/06/07 01:43:07;;;;;;;1.52;1.40;;;;;;;16.65;100.00;98604.81;4501821;31;20110;-71
2022/06/07 01:45:34;;;;;;;1.45;1.20;;;;;;;16.73;99.87;98606.56;4501715;31;20104;-71
2022/06/07 01:48:01;;;;;;;1.60;1.45;;;;;;;16.65;100.00;98599.53;4502144;31;20157;-71
2022/06/07 01:50:29;;;;;;;1.62;1.10;;;;;;;16.66;100.00;98601.16;4501633;31;20100;-71
2022/06/07 01:52:56;;;;;;;1.40;1.10;;;;;;;16.72;100.00;98604.91;4501734;31;20160;-71
2022/06/07 01:55:24;;;;;;;1.42;1.30;;;;;;;16.75;100.00;98599.25;4501792;31;20458;-71
2022/06/07 01:57:52;;;;;;;2.22;1.10;;;;;;;16.83;99.96;98600.97;4502002;31;20107;-71
2022/06/07 02:00:19;;;;;;;2.20;1.40;;;;;;;16.86;99.85;98597.97;4501666;31;20454;-71
2022/06/07 02:02:47;;;;;;;2.03;1.40;;;;;;;16.91;99.56;98597.47;4501902;31;20462;-71
2022/06/07 02:05:15;;;;;;;2.22;1.27;;;;;;;16.91;99.54;98597.47;4501848;31;20099;-71
2022/06/07 02:07:43;;;;;;;1.95;1.37;;;;;;;16.90;99.51;98587.91;4501900;31;20135;-71
2022/06/07 02:10:11;;;;;;;2.08;1.37;;;;;;;16.87;99.79;98589.06;4501546;31;20112;-71
2022/06/07 02:12:39;;;;;;;2.87;1.20;;;;;;;16.84;99.90;98582.28;4501843;31;20122;-71
2022/06/07 02:15:06;;;;;;;1.40;1.27;;;;;;;16.83;99.95;98580.63;4501802;31;20114;-71
2022/06/07 02:17:36;;;;;;;1.60;1.30;;;;;;;16.82;100.00;98581.66;4501395;31;20508;-71
2022/06/07 02:20:05;;;;;;;1.30;1.20;;;;;;;16.79;100.00;98587.31;4501973;31;20116;-71
2022/06/07 02:22:32;;;;;;;1.62;1.27;;;;;;;16.75;100.00;98572.78;4501311;31;20095;-71
2022/06/07 02:24:59;;;;;;;1.62;1.23;;;;;;;16.73;100.00;98569.53;4501526;31;20080;-71
2022/06/07 02:27:26;;;;;;;1.60;1.20;;;;;;;16.72;100.00;98572.34;4501387;31;20108;-72
2022/06/07 02:29:54;;;;;;;1.67;1.12;;;;;;;16.73;100.00;98566.88;4501528;31;20168;-71
2022/06/07 02:32:28;;;;;;;2.55;1.27;;;;;;;16.71;100.00;98565.41;4500288;31;20492;-71
2022/06/07 02:34:58;;;;;;;1.48;1.37;;;;;;;16.65;100.00;98565.12;4500107;31;20140;-71
2022/06/07 02:37:26;;;;;;;4.20;1.48;;;;;;;16.65;100.00;98561.66;4501450;31;20085;-71
2022/06/07 02:39:54;;;;;;;3.28;1.37;;;;;;;16.65;100.00;98566.94;4501333;31;20519;-71
2022/06/07 02:42:25;;;;;;;2.28;1.80;;;;;;;16.63;100.00;98564.47;4501368;31;20114;-71
2022/06/07 02:44:53;;;;;;;1.62;1.12;;;;;;;16.61;100.00;98560.37;4501479;31;20172;-71
2022/06/07 02:47:20;;;;;;;1.87;1.33;;;;;;;16.60;100.00;98564.03;4500696;31;20096;-71
2022/06/07 02:49:48;;;;;;;1.95;1.65;;;;;;;16.59;100.00;98571.13;4501717;31;20190;-71
2022/06/07 02:52:15;;;;;;;1.55;1.37;;;;;;;16.58;100.00;98576.59;4501740;31;20518;-71
2022/06/07 02:54:43;;;;;;;1.33;1.20;;;;;;;16.59;100.00;98575.59;4501495;31;20092;-72
2022/06/07 02:57:11;;;;;;;1.48;1.30;;;;;;;16.64;100.00;98568.78;4501520;31;20107;-71
2022/06/07 02:59:39;;;;;;;2.22;1.52;;;;;;;16.71;100.00;98575.97;4501608;31;20100;-71
2022/06/07 03:02:06;;;;;;;2.47;1.52;;;;;;;16.78;100.00;98582.19;4501450;31;20106;-71
2022/06/07 03:04:33;;;;;;;1.60;1.40;;;;;;;16.85;100.00;98575.16;4501207;31;20122;-71
2022/06/07 03:07:03;;;;;;;1.65;1.40;;;;;;;16.94;99.64;98581.22;4501385;31;20445;-71
2022/06/07 03:09:30;;;;;;;2.33;1.65;;;;;;;16.96;99.43;98568.63;4501374;31;20104;-71
2022/06/07 03:11:58;;;;;;;1.30;1.20;;;;;;;16.98;99.21;98566.63;4501250;31;20100;-71
2022/06/07 03:14:26;;;;;;;1.85;1.35;;;;;;;16.92;99.72;98567.34;4501336;31;20092;-71
2022/06/07 03:16:57;;;;;;;1.60;1.50;;;;;;;16.93;99.91;98563.72;4501458;31;20104;-71
2022/06/07 03:19:25;;;;;;;1.30;1.20;;;;;;;16.96;100.00;98571.28;4501405;31;20490;-71
2022/06/07 03:21:52;;;;;;;1.70;1.40;;;;;;;17.10;99.24;98575.75;4501301;31;20155;-72
2022/06/07 03:24:20;;;;;;;3.65;1.48;;;;;;;17.28;98.01;98574.53;4501238;31;20084;-71
2022/06/07 03:26:49;;;;;;;1.98;1.30;;;;;;;17.41;97.07;98572.06;4501426;31;20138;-72
2022/06/07 03:29:17;;;;;;;2.28;1.48;;;;;;;17.54;96.12;98576.66;4501511;31;20160;-72
2022/06/07 03:31:44;;;;;;;2.15;1.58;;;;;;;17.70;95.28;98587.03;4509219;31;20623;-71
2022/06/07 03:34:12;;;;;;;2.80;1.33;;;;;;;17.80;94.65;98581.41;4517310;31;20083;-72
2022/06/07 03:36:40;;;;;;;2.35;1.45;;;;;;;17.89;94.28;98580.31;4516835;31;20115;-71
2022/06/07 03:39:08;;;;;;;1.50;1.37;;;;;;;17.98;93.81;98578.38;4517227;31;20428;-71
2022/06/07 03:41:37;;;;;;;2.90;1.33;;;;;;;17.98;93.82;98572.25;4517055;31;20118;-72
2022/06/07 03:44:05;;;;;;;1.87;1.40;;;;;;;18.06;93.45;98572.94;4517018;31;20114;-71
2022/06/07 03:46:35;;;;;;;2.37;1.37;;;;;;;18.19;92.83;98569.59;4516714;31;20144;-71
2022/06/07 03:49:03;;;;;;;1.60;1.37;;;;;;;18.30;92.23;98575.37;4517117;31;20133;-71
2022/06/07 03:51:31;;;;;;;2.37;1.50;;;;;;;18.38;92.01;98573.41;4516878;31;20114;-71
2022/06/07 03:53:59;;;;;;;1.62;1.50;;;;;;;18.38;91.72;98568.13;4516902;31;20503;-71
2022/06/07 03:56:27;;;;;;;1.40;1.30;;;;;;;18.43;91.49;98571.00;4516993;31;20092;-71
2022/06/07 03:58:55;;;;;;;1.87;1.52;;;;;;;18.44;92.32;98570.00;4516261;31;20095;-71
2022/06/07 04:01:23;;;;;;;1.92;1.52;;;;;;;18.53;91.35;98564.53;4516335;31;20083;-71
2022/06/07 04:03:54;;;;;;;2.00;1.58;;;;;;;18.58;91.86;98567.44;4516871;31;20107;-72
2022/06/07 04:06:24;;;;;;;2.53;1.58;;;;;;;18.56;91.89;98564.16;4514648;31;20080;-71
2022/06/07 04:08:53;;;;;;;3.35;1.60;;;;;;;18.60;91.95;98563.56;4516246;31;20125;-71
2022/06/07 04:11:22;;;;;;;1.45;1.35;;;;;;;18.63;92.10;98555.22;4516782;31;20474;-71
2022/06/07 04:13:53;;;;;;;1.90;1.65;;;;;;;18.79;91.66;98561.25;4516259;31;20087;-72
2022/06/07 04:16:23;;;;;;;1.40;1.30;;;;;;;18.83;91.61;98559.81;4515074;31;20537;-72
2022/06/07 04:18:51;;;;;;;1.95;1.40;;;;;;;18.94;90.40;98555.81;4516810;31;20107;-71
2022/06/07 04:21:18;;;;;;;2.90;1.42;;;;;;;18.93;90.54;98551.56;4516552;31;20174;-71
2022/06/07 04:23:47;;;;;;;1.60;1.42;;;;;;;19.03;89.88;98551.19;4516336;31;20148;-71
2022/06/07 04:26:25;;;;;;;1.55;1.40;;;;;;;19.14;89.52;98555.94;4516579;31;20171;-72
2022/06/07 04:28:54;;;;;;;1.70;1.35;;;;;;;19.18;89.07;98546.53;4516623;31;20091;-72
2022/06/07 04:31:23;;;;;;;1.87;1.55;;;;;;;19.37;88.33;98549.50;4510335;31;20104;-71
2022/06/07 04:33:54;;;;;;;1.55;1.45;;;;;;;19.46;87.19;98543.78;4500722;31;20123;-72
2022/06/07 04:36:22;;;;;;;2.42;1.60;;;;;;;19.68;86.71;98538.31;4500552;31;20109;-73
2022/06/07 04:38:52;;;;;;;1.77;1.27;;;;;;;19.72;86.42;98542.22;4500065;31;20603;-73
2022/06/07 04:41:22;;;;;;;2.55;1.30;;;;;;;19.89;85.09;98541.88;4506223;31;20495;-73
2022/06/07 04:43:51;;;;;;;4.15;1.30;;;;;;;20.00;85.40;98543.91;4516061;31;20103;-73
2022/06/07 04:46:19;;;;;;;2.58;1.48;;;;;;;19.97;85.51;98541.66;4516411;31;20469;-73
2022/06/07 04:48:47;;;;;;;1.70;1.40;;;;;;;20.09;83.75;98536.56;4516342;31;20083;-73
2022/06/07 04:51:17;;;;;;;1.52;1.10;;;;;;;20.23;83.03;98543.53;4516364;31;20103;-73
2022/06/07 04:53:47;;;;;;;3.80;1.45;;;;;;;20.43;82.47;98546.16;4516322;31;20183;-73
2022/06/07 04:56:21;;;;;;;1.70;1.35;;;;;;;20.51;81.96;98545.13;4515853;31;20092;-73
2022/06/07 04:58:48;;;;;;;1.30;1.15;;;;;;;20.62;81.77;98547.16;4515807;31;20151;-73
2022/06/07 05:01:19;;;;;;;1.55;1.37;;;;;;;20.70;80.34;98549.62;4506519;31;20449;-73
2022/06/07 05:03:48;;;;;;;2.67;1.20;;;;;;;20.76;78.73;98553.31;4501174;31;20211;-73
2022/06/07 05:06:19;;;;;;;1.65;1.35;;;;;;;20.86;78.72;98547.53;4506062;31;20570;-73
2022/06/07 05:08:47;;;;;;;2.58;1.33;;;;;;;20.95;78.86;98548.94;4510276;31;20461;-73
2022/06/07 05:11:15;;;;;;;1.40;1.30;;;;;;;21.12;78.29;98551.97;4510436;31;20148;-73
2022/06/07 05:13:42;;;;;;;1.70;1.40;;;;;;;21.28;77.54;98545.34;4513413;31;21014;-73
2022/06/07 05:16:11;;;;;;;2.28;1.62;;;;;;;21.33;76.70;98552.69;4509514;31;20135;-73
2022/06/07 05:18:39;;;;;;;1.52;1.42;;;;;;;21.47;75.52;98551.63;4504306;31;20099;-73
2022/06/07 05:21:08;;;;;;;2.55;1.37;;;;;;;21.49;75.43;98556.72;4509370;31;20114;-73
2022/06/07 05:23:37;;;;;;;2.53;1.40;;;;;;;21.68;74.10;98549.66;4514015;31;20076;-73
2022/06/07 05:26:08;;;;;;;1.52;1.17;;;;;;;21.74;75.11;98560.31;4514451;31;20114;-73
2022/06/07 05:28:37;;;;;;;2.65;1.10;;;;;;;21.74;72.93;98554.13;4495137;31;20100;-73
2022/06/07 05:31:05;;;;;;;1.55;1.45;;;;;;;21.80;72.79;98558.59;4510816;31;20099;-73
2022/06/07 05:33:36;;;;;;;3.10;1.40;;;;;;;21.93;71.58;98557.72;4515439;31;20083;-73
2022/06/07 05:36:04;;;;;;;1.87;1.45;;;;;;;22.20;71.38;98562.88;4505028;31;20103;-73
2022/06/07 05:38:33;;;;;;;2.60;1.48;;;;;;;22.27;70.84;98558.28;4509033;31;20109;-73
2022/06/07 05:41:00;;;;;;;1.15;1.05;;;;;;;22.33;69.79;98563.59;4516847;31;20079;-73
2022/06/07 05:43:27;;;;;;;1.45;1.35;;;;;;;22.23;69.81;98560.56;4513840;31;20148;-73
2022/06/07 05:45:56;;;;;;;1.67;1.30;;;;;;;22.29;70.40;98561.56;4512523;31;20122;-73
2022/06/07 05:48:25;;;;;;;2.65;1.60;;;;;;;22.10;69.46;98558.00;4508954;31;20187;-73
2022/06/07 05:50:52;;;;;;;1.30;1.20;;;;;;;22.15;68.84;98563.53;4511312;31;20099;-74
2022/06/07 05:53:20;;;;;;;2.15;1.95;;;;;;;22.09;68.78;98565.19;4509773;31;20381;-73
2022/06/07 05:55:47;;;;;;;3.00;1.65;;;;;;;;;;4515289;31;20157;-73
2022/06/07 05:58:15;;;;;;;3.53;1.62;;;;;;;22.52;67.58;98560.97;4515970;31;20103;-72
2022/06/07 06:00:42;;;;;;;2.03;1.65;;;;;;;22.50;67.08;98557.72;4513088;31;20096;-72
2022/06/07 06:03:10;;;;;;;4.25;1.62;;;;;;;22.38;68.26;98564.78;4515100;31;20099;-72
2022/06/07 06:05:44;;;;;;;3.62;1.90;;;;;;;22.50;67.32;98558.50;4510946;31;20150;-73
2022/06/07 06:11:19;;;;;;;3.50;1.70;;;;;;;22.35;67.41;98558.03;4511347;31;20158;-72
2022/06/07 06:13:46;;;;;;;2.87;1.80;;;;;;;22.42;67.04;98561.47;4498222;31;20096;-73
2022/06/07 06:16:18;;;;;;;4.25;2.10;;;;;;;22.44;66.82;98567.41;4500688;31;20192;-73
2022/06/07 06:18:48;;;;;;;1.70;1.60;;;;;;;22.51;66.87;98567.31;4504581;31;20118;-73
2022/06/07 06:21:18;;;;;;;3.50;2.00;;;;;;;22.72;67.71;98562.63;4509091;31;20111;-72
2022/06/07 06:23:45;;;;;;;1.77;1.67;;;;;;;22.97;67.22;98567.91;4509131;31;20087;-73
2022/06/07 06:26:15;;;;;;;3.03;1.90;;;;;;;22.91;66.80;98563.44;4511278;31;20100;-72
2022/06/07 06:28:43;;;;;;;2.15;1.80;;;;;;;22.99;66.82;98569.31;4507107;31;20111;-73
2022/06/07 06:31:12;;;;;;;2.30;2.10;;;;;;;23.09;64.98;98565.28;4509265;31;20125;-73
2022/06/07 06:33:46;;;;;;;2.47;2.28;;;;;;;22.96;64.73;98563.59;4512155;31;20136;-73
2022/06/07 06:36:20;;;;;;;3.30;2.10;;;;;;;22.75;64.87;98554.97;4508691;31;20095;-72
2022/06/07 06:38:48;;;;;;;2.97;1.60;;;;;;;22.78;65.03;98556.41;4506078;31;20084;-73
2022/06/07 06:41:22;;;;;;;2.70;1.80;;;;;;;22.89;63.19;98554.84;4501484;31;20155;-73
2022/06/07 06:43:51;;;;;;;2.67;2.00;;;;;;;23.05;64.98;98559.59;4507804;31;20444;-72
2022/06/07 06:46:24;;;;;;;2.33;2.10;;;;;;;22.92;63.90;98549.03;4513153;31;20244;-72
2022/06/07 06:48:53;;;;;;;2.50;2.20;;;;;;;22.91;65.27;98555.41;4509843;31;20120;-72
2022/06/07 06:51:24;;;;;;;2.40;2.00;;;;;;;23.04;64.97;98557.94;4511140;31;20127;-72
2022/06/07 06:53:52;;;;;;;2.58;1.92;;;;;;;23.03;62.37;98559.00;4510827;31;20091;-72
2022/06/07 06:56:22;;;;;;;2.75;1.73;;;;;;;23.23;62.08;98555.31;4511654;31;20104;-72
2022/06/07 06:58:51;;;;;;;2.12;1.70;;;;;;;23.08;62.06;98553.78;4503930;31;20155;-72
2022/06/07 07:01:22;;;;;;;2.50;1.73;;;;;;;23.44;61.75;98557.50;4501685;31;20127;-72
2022/06/07 07:03:51;;;;;;;2.10;1.60;;;;;;;23.52;60.16;98549.16;4501872;31;20528;-72
2022/06/07 07:06:20;;;;;;;2.33;1.90;;;;;;;23.58;59.35;98550.09;4500356;31;20577;-73
2022/06/07 07:08:48;;;;;;;2.50;1.85;;;;;;;23.83;58.71;98551.81;4500827;31;20148;-73
2022/06/07 07:11:30;;;;;;;3.47;2.10;;;;;;;23.95;59.51;98543.84;4500889;31;20113;-73
2022/06/07 07:13:59;;;;;;;1.60;1.42;;;;;;;24.25;57.71;98541.91;4502893;31;20087;-73
2022/06/07 07:16:29;;;;;;;2.33;1.80;;;;;;;24.20;57.56;98544.47;4509008;31;20578;-72
2022/06/07 07:18:58;;;;;;;1.80;1.70;;;;;;;24.05;58.60;98549.44;4512685;31;20095;-72
2022/06/07 07:21:29;;;;;;;2.50;1.80;;;;;;;24.08;57.85;98552.47;4514435;31;20147;-73
2022/06/07 07:23:58;;;;;;;2.65;1.70;;;;;;;24.12;57.28;98546.66;4514569;31;20099;-73
2022/06/07 07:26:28;;;;;;;1.62;1.50;;;;;;;24.06;58.36;98543.06;4506199;31;20441;-73
2022/06/07 07:28:55;;;;;;;1.42;1.25;;;;;;;23.86;60.05;98536.16;4508186;31;20108;-73
2022/06/07 07:31:25;;;;;;;1.48;1.37;;;;;;;24.22;57.39;98526.28;4506261;31;20096;-72
2022/06/07 07:33:54;;;;;;;2.78;1.48;;;;;;;24.37;56.38;98533.88;4514575;31;20590;-73
2022/06/07 07:36:21;;;;;;;1.80;1.40;;;;;;;24.60;55.38;98526.91;4507252;31;20171;-73
2022/06/07 07:38:49;;;;;;;2.50;1.67;;;;;;;24.89;54.23;98532.34;4509129;31;20091;-72
2022/06/07 07:41:22;;;;;;;2.05;1.33;;;;;;;24.80;53.15;98529.22;4509575;31;20406;-72
2022/06/07 07:43:51;;;;;;;4.78;1.65;;;;;;;24.80;53.73;98530.03;4508469;31;20092;-72
2022/06/07 07:46:22;;;;;;;1.20;1.10;;;;;;;25.12;55.83;98523.44;4509762;31;20127;-71
2022/06/07 07:48:50;;;;;;;4.75;2.65;;;;;;;25.35;53.29;98527.12;4510186;31;20489;-72
2022/06/07 07:51:20;;;;;;;2.60;2.08;;;;;;;25.54;54.60;98528.53;4508603;31;20171;-72
2022/06/07 07:53:55;;;;;;;2.65;2.00;;;;;;;25.48;54.35;98521.44;4510242;31;20085;-73
2022/06/07 07:56:23;;;;;;;1.75;1.50;;;;;;;25.67;57.04;98528.25;4514199;31;20099;-72
2022/06/07 07:58:52;;;;;;;1.60;1.50;;;;;;;25.94;53.84;98530.31;4508263;31;20096;-73
2022/06/07 08:01:21;;;;;;;2.30;1.65;;;;;;;25.70;51.28;98524.28;4509116;31;20087;-73
2022/06/07 08:03:51;;;;;;;5.10;1.50;;;;;;;25.33;51.96;98520.13;4506858;31;20087;-73
2022/06/07 08:06:21;;;;;;;9.30;2.05;;;;;;;25.56;55.91;98523.75;4509119;31;20126;-73
2022/06/07 08:08:50;;;;;;;2.40;1.90;;;;;;;25.79;51.97;98522.00;4503657;31;20510;-73
2022/06/07 08:11:20;;;;;;;2.08;1.58;;;;;;;25.97;51.31;98518.28;4505857;31;20127;-72
2022/06/07 08:13:47;;;;;;;2.83;1.50;;;;;;;26.00;53.43;98513.25;4507795;31;20106;-73
2022/06/07 08:16:15;;;;;;;4.03;1.70;;;;;;;26.42;51.93;98520.06;4500606;31;20172;-73
2022/06/07 08:18:45;;;;;;;4.35;1.80;;;;;;;26.53;52.83;98516.47;4504681;31;20521;-73
2022/06/07 08:21:15;;;;;;;2.10;1.90;;;;;;;26.65;49.90;98510.97;4503052;31;20099;-73
2022/06/07 08:23:43;;;;;;;1.87;1.40;;;;;;;26.31;49.61;98513.72;4510192;31;20095;-73
2022/06/07 08:26:11;;;;;;;8.93;2.12;;;;;;;26.22;50.22;98515.19;4503551;31;20130;-73
2022/06/07 08:28:41;;;;;;;2.35;1.48;;;;;;;25.90;49.59;98507.69;4507421;31;20107;-73
2022/06/07 08:31:17;;;;;;;3.22;1.60;;;;;;;25.69;50.87;98514.59;4506267;31;20104;-74
2022/06/07 08:39:19;;;;;;;6.35;2.10;;;;;;;27.03;50.09;98506.63;4505889;31;20491;-73
2022/06/07 08:41:54;;;;;;;3.78;1.95;;;;;;;27.43;50.20;98510.88;4512507;31;20477;-73
2022/06/07 08:44:22;;;;;;;2.37;2.05;;;;;;;27.89;50.75;98506.94;4504785;31;20107;-73
2022/06/07 08:46:56;;;;;;;7.32;2.62;;;;;;;27.79;49.93;98502.31;4509694;31;20490;-73
2022/06/07 08:49:23;;;;;;;6.00;2.12;;;;;;;27.88;49.03;98502.66;4507342;31;20117;-73
2022/06/07 08:52:00;;;;;;;2.55;2.20;;;;;;;27.09;50.91;98508.31;4507708;31;20103;-73
2022/06/07 08:54:32;;;;;;;2.55;1.90;;;;;;;27.34;52.63;98501.63;4496059;31;20103;-73
2022/06/07 08:57:27;;;;;;;2.58;2.20;;;;;;;27.73;48.44;98504.12;4498702;31;21182;-73
2022/06/07 09:00:00;;;;;;;2.05;1.95;;;;;;;28.39;46.31;98504.91;4508680;31;20184;-73
2022/06/07 09:02:40;;;;;;;3.45;2.50;;;;;;;28.71;45.91;98502.16;4493623;31;20140;-73
2022/06/07 09:05:16;;;;;;;2.33;1.90;;;;;;;29.06;43.03;98495.28;4499920;31;20096;-73
2022/06/07 09:07:44;;;;;;;3.17;2.10;;;;;;;29.41;45.73;98498.38;4511765;31;20135;-73
2022/06/07 09:13:07;;;;;;;4.68;2.22;;;;;;;29.15;46.43;98499.09;4499157;31;20127;-74
2022/06/07 09:15:36;;;;;;;6.43;2.12;;;;;;;28.95;44.08;98499.00;4507661;31;20152;-73
2022/06/07 09:18:06;;;;;;;4.82;2.60;;;;;;;28.55;44.88;98495.84;4511494;31;20095;-73
2022/06/07 09:20:45;;;;;;;2.55;2.35;;;;;;;28.52;43.98;98490.97;4503150;31;20151;-73
2022/06/07 09:23:15;;;;;;;2.08;1.75;;;;;;;28.76;45.75;98494.09;4490958;31;20100;-73
2022/06/07 09:25:49;;;;;;;1.85;1.55;;;;;;;29.18;44.64;98489.66;4509460;31;20100;-73
2022/06/07 09:28:28;;;;;;;7.60;1.98;;;;;;;29.56;46.39;98483.00;4504827;31;20441;-73
2022/06/07 09:31:06;;;;;;;3.05;2.20;;;;;;;29.89;44.32;98486.28;4503927;31;20640;-73
2022/06/07 09:33:37;;;;;;;2.87;2.20;;;;;;;29.74;41.86;98472.75;4505615;31;20115;-73
2022/06/07 09:36:19;;;;;;;2.30;1.60;;;;;;;29.83;46.20;98481.16;4491421;31;20457;-73
2022/06/07 09:38:51;;;;;;;4.07;1.90;;;;;;;30.14;42.49;98468.41;4508746;31;20103;-73
2022/06/07 09:41:38;;;;;;;3.35;2.65;;;;;;;29.55;39.98;98465.19;4505827;31;20087;-73
2022/06/07 09:44:11;;;;;;;5.03;2.00;;;;;;;29.27;42.25;98466.50;4503515;31;20103;-73
2022/06/07 09:46:41;;;;;;;5.70;2.80;;;;;;;28.94;43.63;98471.25;4504377;31;20432;-73
2022/06/07 09:49:46;;;;;;;6.12;2.50;;;;;;;28.94;44.93;98468.53;4505118;31;20160;-73
2022/06/07 09:52:23;;;;;;;4.18;2.58;;;;;;;28.18;45.55;98458.19;4422365;32;20181;-73
2022/06/07 09:55:30;;;;;;;2.17;1.87;;;;;;;28.58;45.72;98462.19;4426690;32;20130;-73
2022/06/07 09:58:03;;;;;;;3.12;1.90;;;;;;;28.84;47.00;98469.34;4430946;32;20211;-74
2022/06/07 10:00:41;;;;;;;3.55;2.10;;;;;;;29.27;41.59;98463.00;4433769;32;20178;-73
2022/06/07 10:03:19;;;;;;;1.80;1.65;;;;;;;29.70;42.71;98458.97;4418770;32;20688;-73
2022/06/07 10:05:55;;;;;;;1.87;1.60;;;;;;;30.12;41.10;98446.28;4414465;32;20128;-73
2022/06/07 10:08:28;;;;;;;1.77;1.65;;;;;;;29.68;40.58;98457.62;4432039;32;20148;-74
2022/06/07 10:10:58;;;;;;;;;;;;;;;30.19;41.26;98456.78;4429729;32;20109;-73
2022/06/07 10:13:31;;;;;;;1.35;1.25;;;;;;;30.78;41.45;98447.97;4428984;32;20000;-74
2022/06/07 10:16:06;;;;;;;5.47;1.70;;;;;;;31.13;40.42;98450.81;4431691;32;20117;-73
2022/06/07 10:18:55;;;;;;;2.83;1.52;;;;;;;30.58;40.98;98448.06;4422533;32;20533;-73
2022/06/07 10:21:41;;;;;;;2.62;2.20;;;;;;;29.85;37.95;98441.19;4428969;32;20541;-73
2022/06/07 10:24:18;;;;;;;1.60;1.40;;;;;;;30.09;41.95;98446.81;4435293;32;20093;-73
2022/06/07 10:26:51;;;;;;;4.68;2.12;;;;;;;29.97;41.17;98438.22;4482703;31;20556;-73
2022/06/07 10:29:54;;;;;;;12.50;2.30;;;;;;;29.55;40.96;98443.59;4512705;31;20197;-73
2022/06/07 10:32:31;;;;;;;5.80;1.37;;;;;;;29.31;41.76;98439.78;4446919;32;20645;-73
2022/06/07 10:35:06;;;;;;;11.38;1.58;;;;;;;29.34;42.16;98436.56;4452222;32;20113;-73
2022/06/07 10:37:59;;;;;;;1.95;1.30;;;;;;;29.66;39.08;98433.63;4439273;32;21087;-74
2022/06/07 10:40:27;;;;;;;1.33;1.23;;;;;;;29.87;40.30;98429.03;4438179;32;20204;-73
2022/06/07 10:42:57;;;;;;;2.03;1.55;;;;;;;30.16;41.59;98424.91;4450765;32;20121;-74
2022/06/07 10:45:33;;;;;;;9.35;2.05;;;;;;;30.64;41.20;98419.91;4433501;32;20180;-73
2022/06/07 10:48:13;;;;;;;5.00;1.95;;;;;;;30.60;39.44;98419.66;4446611;32;20088;-73
2022/06/07 10:50:55;;;;;;;6.60;1.85;;;;;;;30.38;38.88;98414.56;4451157;32;20466;-74
2022/06/07 10:53:40;;;;;;;4.55;1.80;;;;;;;29.78;42.87;98411.75;4453216;32;20113;-73
2022/06/07 10:56:22;;;;;;;3.60;1.85;;;;;;;29.77;39.80;98410.09;4453461;32;20104;-73
2022/06/07 10:58:52;;;;;;;1.95;1.70;;;;;;;29.62;40.52;98412.84;4441888;32;20154;-74
2022/06/07 11:01:27;;;;;;;2.97;1.95;;;;;;;28.88;44.08;98404.91;4447493;32;20175;-73
2022/06/07 11:04:07;;;;;;;1.75;1.42;;;;;;;29.42;41.70;98398.25;4436984;32;20217;-73
2022/06/07 11:09:42;;;;;;;3.97;1.70;;;;;;;28.80;42.06;98390.06;4485664;31;20186;-73
2022/06/07 11:12:25;;;;;;;1.92;1.83;;;;;;;29.20;42.20;98387.69;4506416;31;20156;-73
2022/06/07 11:15:17;;;;;;;1.92;1.83;;;;;;;29.45;41.05;98389.62;4495139;31;20123;-73
2022/06/07 11:18:15;;;;;;;1.92;1.55;;;;;;;29.69;41.70;98387.19;4504516;31;20458;-73
2022/06/07 11:21:03;;;;;;;4.72;1.80;;;;;;;30.60;41.85;98387.22;4434792;32;20172;-73
2022/06/07 11:23:43;;;;;;;1.67;1.58;;;;;;;30.94;39.25;98381.06;4450634;32;20246;-73
2022/06/07 11:26:18;;;;;;;1.80;1.50;;;;;;;30.11;36.94;98374.41;4449513;32;20193;-73
2022/06/07 11:28:47;;;;;;;4.43;1.25;;;;;;;29.84;38.95;98375.56;4438418;32;20104;-73
2022/06/07 11:31:15;;;;;;;2.55;1.75;;;;;;;30.29;39.26;98372.19;4437823;32;20105;-73
2022/06/07 11:33:51;;;;;;;2.05;1.20;;;;;;;30.51;37.20;98364.56;4449816;32;20479;-74
2022/06/07 11:36:24;;;;;;;5.72;1.55;;;;;;;30.66;38.74;98373.66;4448903;32;21171;-73
2022/06/07 11:38:57;;;;;;;1.75;1.15;;;;;;;30.91;38.67;98370.81;4444870;32;20105;-72
2022/06/07 11:41:36;;;;;;;1.27;1.12;;;;;;;30.89;38.22;98364.09;4444938;32;20534;-72
2022/06/07 11:44:12;;;;;;;3.10;1.20;;;;;;;30.67;35.36;98353.66;4447009;32;20322;-71
2022/06/07 11:46:55;;;;;;;5.10;1.50;;;;;;;30.71;40.52;98355.53;4440866;32;20131;-71
2022/06/07 11:51:54;;;;;;;2.08;1.60;;;;;;;30.50;37.86;98348.63;4446030;32;20117;-74
2022/06/07 11:54:38;;;;;;;1.50;1.40;;;;;;;30.37;38.31;98344.59;4443120;32;20134;-74
2022/06/07 11:57:33;;;;;;;1.83;1.10;;;;;;;30.81;37.87;98337.63;4462825;31;20563;-72
2022/06/07 12:00:03;;;;;;;1.67;1.30;;;;;;;30.54;38.00;98336.97;4485917;31;20147;-71
2022/06/07 12:02:38;;;;;;;1.95;1.00;;;;;;;31.03;37.77;98334.53;4508982;31;20480;-72
2022/06/07 12:05:26;;;;;;;3.35;1.40;;;;;;;30.94;37.94;98331.56;4496382;31;20113;-71
2022/06/07 12:08:13;;;;;;;3.60;1.30;;;;;;;30.37;37.97;98328.38;4510612;31;20091;-71
2022/06/07 12:10:59;;;;;;;1.40;1.30;;;;;;;29.91;38.93;98327.47;4514265;31;20160;-71
2022/06/07 12:13:52;;;;;;;1.92;1.40;;;;;;;30.30;40.16;98323.28;4510774;31;20151;-71
2022/06/07 12:16:34;;;;;;;1.80;1.30;;;;;;;30.73;38.28;98320.09;4512236;31;20083;-72